FACT

Cape Town International Airport

Cape Town, South Africa
TAF FACT 162200Z 1700/1806 VRB03KT CAVOK TX25/1712Z TN07/1706Z
Issued Valid From Valid To
Jul-16 @ 22:00 UTC
(2 hours ago)
Jul-17 @ 00:00 UTC
(26 minutes ago)
Jul-18 @ 06:00 UTC
(-1 days ago)
Jul-17 @ 00:00 to Jul-18 @ 06:00
TAF FACT 162200Z 1700/1806 VRB03KT CAVOK TX25/1712Z TN07/1706Z
Wind Visibility Clouds
Variable at 3 knots 10,000+ meters
  • No significant clouds
TAF FACT 162200Z 1700/1806 VRB03KT CAVOK TX25/1712Z TN07/1706Z
Issued Jul-16 @ 22:00 UTC
(2 hours ago)
Valid From Jul-17 @ 00:00 UTC
(26 minutes ago)
Valid To Jul-18 @ 06:00 UTC
(-1 days ago)
Jul-17 @ 00:00 - Jul-18 @ 06:00
Wind Visibility
Variable at 3 knots 10,000+ meters
Clouds
  • No significant clouds